Tropical Cyclones
[Index]
Main Index Home Page Stock Weather Photos Extreme Storms Discussion Storm News and Storm Chasing Reports Tropical Cyclones / Hurricanes / Typhoons Weather Data and Links Wild Fires / Bushfires Weather Observation Techniques Weather Picture Catalogue Tornado Pictures and Reports Stock Video Footage and DVDs for sale
Season 1983-1984 Tropical Cyclone INGRID Track Map
Season 1983-1984 Summaries: [BoM-AU] [JTWC-AU] [JTWC-SIO] [JTWC-SPAC] [JTWC-SH]
<<- Previous TC | JTWC 1983-1984 Season | Next TC ->>

click for intensity scale information  Lat/long Grid: Show Hide

 Date Labels: Show Hide

Joint Typhoon Warning Centre Cyclone Data

Name: INGRID

20 Feb 1984 06:00 UTC to 26 Feb 1984 06:00 UTC

    date/time    lat    long     hPa   cat  kts
1984-02-20 06   17.3   147.5                  20          
1984-02-20 12   17.5   148.3                  20          
1984-02-20 18   17.6   149.0                  25          
1984-02-21 00   17.5   149.6                  30          
1984-02-21 06   17.4   150.0                  35          
1984-02-21 12   17.3   150.3                  35          
1984-02-21 18   17.2   150.7                  35          
1984-02-22 00   17.1   151.0                  35          
1984-02-22 06   16.9   151.4            1     40          
1984-02-22 12   16.5   151.9            1     45          
1984-02-22 18   16.4   152.7            2     55          
1984-02-23 00   16.9   153.9            2     60          
1984-02-23 06   17.6   155.1            2     60          
1984-02-23 12   18.2   156.1            2     55          
1984-02-23 18   18.7   157.1            1     45          
1984-02-24 00   19.2   158.0            1     40          
1984-02-24 06   19.7   158.5                  35          
1984-02-24 12   20.6   158.6                  30          
1984-02-24 18   21.6   158.3                  30          
1984-02-25 00   22.5   157.9                  30          
1984-02-25 06   23.2   157.5                  30          
1984-02-25 12   23.7   157.0                  30          
1984-02-25 18   24.2   156.4                  25          
1984-02-26 00   24.7   155.7                  25          
1984-02-26 06   25.1   155.0                  20          
Winds are 1-min average.

Tropical cyclone tracks developed by Michael Bath using data from the Joint Typhoon Warning Centre Best Tracks and Google Maps.


[Australian Severe Weather index] [Copyright Notice] [Email Contacts] [Search This Site] [Privacy Policy]
Document: tropical_cyclone_ingrid.htm Updated: 18 September 2016